Time;durP1;ratioP1;P1;durP2;ratioP2;P2;SDS_P1;SDS_P2;PMS_P1;PMS_P2;Temp;Humidity;BMP_temperature;BMP_pressure;BME280_temperature;BME280_humidity;BME280_pressure;Samples;Min_cycle;Max_cycle;Signal;HPM_P1;HPM_P2
2022/12/23 00:00:58;;;;;;;205.23;194.10;;;7.40;99.90;;;;;;5026539;28;20401;-69
2022/12/23 00:03:24;;;;;;;198.93;188.15;;;7.40;99.90;;;;;;5024690;28;20525;-68
2022/12/23 00:05:50;;;;;;;201.73;190.63;;;7.40;99.90;;;;;;5043639;28;20909;-69
2022/12/23 00:08:16;;;;;;;204.85;193.68;;;7.40;99.90;;;;;;5025465;28;20408;-69
2022/12/23 00:10:42;;;;;;;194.32;183.52;;;7.40;99.90;;;;;;5024419;28;20385;-68
2022/12/23 00:16:12;;;;;;;205.90;194.63;;;7.30;99.90;;;;;;5043231;28;20486;-69
2022/12/23 00:18:38;;;;;;;194.68;183.88;;;7.30;99.90;;;;;;5024389;28;20396;-68
2022/12/23 00:21:06;;;;;;;207.55;195.93;;;7.20;99.90;;;;;;5044732;28;20393;-68
2022/12/23 00:23:33;;;;;;;224.15;211.80;;;7.20;99.90;;;;;;5044762;28;20392;-68
2022/12/23 00:25:59;;;;;;;223.15;211.13;;;7.30;99.90;;;;;;5027611;28;20854;-68
2022/12/23 00:28:25;;;;;;;235.65;222.88;;;7.30;99.90;;;;;;5049505;28;20412;-51
2022/12/23 00:30:57;;;;;;;253.38;239.77;;;7.30;99.90;;;;;;5051473;28;20389;-54
2022/12/23 00:33:26;;;;;;;230.68;217.90;;;7.30;99.90;;;;;;5034247;28;20396;-53
2022/12/23 00:35:52;;;;;;;238.60;226.02;;;7.20;99.90;;;;;;5030712;28;20397;-69
2022/12/23 00:42:52;;;;;;;239.48;226.63;;;7.20;99.90;;;;;;5029624;28;20406;-69
2022/12/23 00:43:53;;;;;;;235.63;222.77;;;7.20;99.90;;;;;;5047871;28;20438;-69
2022/12/23 00:46:18;;;;;;;225.73;213.57;;;7.30;99.90;;;;;;5030646;28;20389;-69
2022/12/23 00:51:28;;;;;;;233.18;220.38;;;7.30;99.90;;;;;;5049025;28;20450;-69
2022/12/23 00:53:53;;;;;;;233.00;220.30;;;7.20;99.90;;;;;;5030121;28;20401;-69
2022/12/23 00:56:19;;;;;;;246.33;233.33;;;7.20;99.90;;;;;;5030186;28;20488;-69
2022/12/23 00:58:44;;;;;;;226.67;214.27;;;7.30;99.90;;;;;;5028493;28;20548;-69
2022/12/23 01:06:37;;;;;;;234.52;221.88;;;7.20;99.90;;;;;;5046427;28;20474;-69
2022/12/23 01:09:03;;;;;;;247.77;234.60;;;7.20;99.90;;;;;;5030939;28;20409;-69
2022/12/23 01:11:30;;;;;;;244.18;231.10;;;7.20;99.90;;;;;;5028342;28;20429;-67
2022/12/23 01:13:57;;;;;;;250.20;237.07;;;7.20;99.90;;;;;;5028160;28;20401;-67
2022/12/23 01:16:23;;;;;;;246.10;233.32;;;7.20;99.90;;;;;;5048171;28;20377;-67
2022/12/23 01:18:48;;;;;;;258.03;244.87;;;7.30;99.90;;;;;;5031374;28;20450;-68
2022/12/23 01:21:14;;;;;;;224.30;212.17;;;7.40;99.90;;;;;;5047505;28;20459;-69
2022/12/23 01:23:39;;;;;;;242.90;230.23;;;7.40;99.90;;;;;;5029122;28;20804;-68
2022/12/23 01:26:06;;;;;;;233.43;221.25;;;7.40;99.90;;;;;;5027319;28;20393;-68
2022/12/23 01:28:33;;;;;;;246.40;233.70;;;7.40;99.90;;;;;;5027104;28;20483;-68
2022/12/23 01:30:59;;;;;;;241.52;228.90;;;7.50;99.90;;;;;;5028311;28;20480;-68
2022/12/23 01:33:25;;;;;;;240.73;227.77;;;7.50;99.90;;;;;;5029411;28;20711;-68
2022/12/23 01:35:51;;;;;;;230.30;217.93;;;7.50;99.90;;;;;;5030063;28;20394;-68
2022/12/23 01:38:16;;;;;;;237.63;224.95;;;7.30;99.90;;;;;;5049617;28;20391;-68
2022/12/23 01:40:44;;;;;;;240.17;227.63;;;7.40;99.90;;;;;;5033437;28;20382;-67
2022/12/23 01:43:18;;;;;;;248.63;235.80;;;7.40;99.90;;;;;;5032518;28;20399;-68
2022/12/23 01:45:44;;;;;;;253.50;240.50;;;7.40;99.90;;;;;;5030798;28;20665;-68
2022/12/23 01:48:14;;;;;;;253.55;240.23;;;7.40;99.90;;;;;;5030151;28;20385;-68
2022/12/23 01:50:45;;;;;;;233.75;221.32;;;7.50;99.90;;;;;;5028726;28;20490;-68
2022/12/23 01:53:28;;;;;;;238.90;226.45;;;7.40;99.90;;;;;;5048918;28;20381;-68
2022/12/23 01:55:58;;;;;;;240.00;227.38;;;7.50;99.90;;;;;;5032917;28;20377;-68
2022/12/23 01:58:48;;;;;;;243.20;230.40;;;7.50;99.90;;;;;;5032836;28;20748;-68
2022/12/23 02:04:03;;;;;;;233.45;221.00;;;7.50;99.90;;;;;;5052636;28;20396;-68
2022/12/23 02:09:22;;;;;;;239.60;227.18;;;7.40;99.90;;;;;;5054365;28;20479;-68
2022/12/23 02:12:27;;;;;;;243.10;230.20;;;7.50;99.90;;;;;;5038637;28;20814;-68
2022/12/23 02:18:04;;;;;;;230.65;218.20;;;7.50;99.90;;;;;;5053207;28;20870;-67
2022/12/23 02:21:00;;;;;;;254.27;241.15;;;7.40;99.90;;;;;;5034913;28;20503;-68
2022/12/23 02:23:38;;;;;;;235.18;222.70;;;7.50;99.90;;;;;;5032932;28;20401;-68
2022/12/23 02:26:13;;;;;;;248.18;235.00;;;7.40;99.90;;;;;;5051388;28;20385;-68
2022/12/23 02:29:10;;;;;;;253.30;239.95;;;7.50;99.90;;;;;;5034608;28;20456;-68
2022/12/23 02:31:53;;;;;;;252.77;239.68;;;7.40;99.90;;;;;;5034717;28;20484;-68
2022/12/23 02:34:34;;;;;;;250.43;237.15;;;7.50;99.90;;;;;;5052723;28;20409;-68
2022/12/23 02:37:19;;;;;;;252.70;239.35;;;7.50;99.90;;;;;;5035272;28;20385;-68
2022/12/23 02:39:52;;;;;;;259.80;246.07;;;7.40;99.90;;;;;;5052606;28;20395;-68
2022/12/23 02:42:29;;;;;;;256.67;243.10;;;7.40;99.90;;;;;;5034146;28;20688;-68
2022/12/23 02:45:00;;;;;;;251.43;238.00;;;7.40;99.90;;;;;;5050806;28;20386;-68
2022/12/23 02:47:34;;;;;;;286.55;271.70;;;7.30;99.90;;;;;;5034030;28;20496;-68
2022/12/23 02:50:08;;;;;;;282.10;267.38;;;7.30;99.90;;;;;;5035180;28;20459;-68
2022/12/23 02:52:37;;;;;;;300.17;284.63;;;7.30;99.90;;;;;;5035685;28;20400;-68
2022/12/23 02:55:12;;;;;;;311.15;294.90;;;7.20;99.90;;;;;;5052992;28;20450;-68
2022/12/23 02:57:43;;;;;;;299.67;283.60;;;7.10;99.90;;;;;;5037215;28;20411;-68
2022/12/23 03:00:09;;;;;;;340.25;322.48;;;7.10;99.90;;;;;;5055425;28;20393;-68
2022/12/23 03:02:37;;;;;;;380.17;360.38;;;7.00;99.90;;;;;;5039207;28;20398;-68
2022/12/23 03:05:04;;;;;;;378.65;359.02;;;7.00;99.90;;;;;;5054534;28;20808;-68
2022/12/23 03:07:40;;;;;;;388.13;368.07;;;6.90;99.90;;;;;;5055685;28;20421;-68
2022/12/23 03:10:19;;;;;;;386.15;366.15;;;7.00;99.90;;;;;;5037321;28;20416;-68
2022/12/23 03:13:03;;;;;;;384.92;364.98;;;7.00;99.90;;;;;;5036758;28;20429;-68
2022/12/23 03:15:32;;;;;;;376.70;357.00;;;7.00;99.90;;;;;;5054633;28;20392;-68
2022/12/23 03:18:17;;;;;;;377.05;357.52;;;7.10;99.90;;;;;;5038435;28;20385;-68
2022/12/23 03:21:09;;;;;;;389.27;369.17;;;7.10;99.90;;;;;;5037313;28;20533;-68
2022/12/23 03:23:50;;;;;;;362.30;343.08;;;7.20;99.90;;;;;;5036323;28;21026;-68
2022/12/23 03:26:26;;;;;;;376.90;357.50;;;7.10;99.90;;;;;;5036240;28;20408;-66
2022/12/23 03:28:57;;;;;;;361.98;342.65;;;7.10;99.90;;;;;;5053235;28;20405;-66
2022/12/23 03:31:30;;;;;;;381.15;361.10;;;7.10;99.90;;;;;;5035013;28;20632;-66
2022/12/23 03:34:00;;;;;;;382.17;362.17;;;7.10;99.90;;;;;;5035534;28;20389;-66
2022/12/23 03:36:54;;;;;;;390.80;370.42;;;7.00;99.90;;;;;;5036499;28;20393;-66
2022/12/23 03:39:24;;;;;;;398.92;378.35;;;6.90;99.90;;;;;;5029580;28;20459;-68
2022/12/23 03:41:59;;;;;;;399.13;378.38;;;6.90;99.90;;;;;;5036846;28;20394;-68
2022/12/23 03:44:35;;;;;;;390.38;370.17;;;6.90;99.90;;;;;;5035973;28;20439;-67
2022/12/23 03:47:12;;;;;;;379.33;359.77;;;7.00;99.90;;;;;;5035190;28;20649;-68
2022/12/23 03:49:53;;;;;;;380.45;360.60;;;7.10;99.90;;;;;;5035127;28;20804;-68
2022/12/23 03:52:24;;;;;;;374.38;354.60;;;7.20;99.90;;;;;;5033853;28;20484;-68
2022/12/23 03:54:56;;;;;;;370.88;351.70;;;7.20;99.90;;;;;;5034754;28;20382;-68
2022/12/23 03:57:28;;;;;;;376.08;356.75;;;7.30;99.90;;;;;;5035018;28;20439;-68
2022/12/23 03:59:53;;;;;;;386.20;366.17;;;7.30;99.90;;;;;;5054017;28;20400;-68
2022/12/23 04:02:37;;;;;;;363.02;344.65;;;7.30;99.90;;;;;;5036864;28;20401;-68
2022/12/23 04:05:23;;;;;;;383.40;363.67;;;7.40;99.90;;;;;;5038134;28;20462;-68
2022/12/23 04:08:07;;;;;;;370.53;351.33;;;7.40;99.90;;;;;;5038071;28;20801;-68
2022/12/23 04:10:33;;;;;;;369.67;350.90;;;7.50;99.90;;;;;;5036980;28;20566;-67
2022/12/23 04:12:59;;;;;;;354.73;336.35;;;7.50;99.90;;;;;;5037093;28;20473;-68
2022/12/23 04:15:26;;;;;;;366.25;347.48;;;7.50;99.90;;;;;;5054313;28;20393;-68
2022/12/23 04:17:53;;;;;;;353.05;334.55;;;7.50;99.90;;;;;;5037422;28;20393;-68
2022/12/23 04:20:19;;;;;;;345.20;326.92;;;7.50;99.90;;;;;;5055165;28;20385;-68
2022/12/23 04:22:44;;;;;;;373.80;354.20;;;7.40;99.90;;;;;;5037806;28;20732;-68
2022/12/23 04:25:12;;;;;;;360.52;341.67;;;7.40;99.90;;;;;;5055012;28;20485;-68
2022/12/23 04:27:38;;;;;;;397.23;376.33;;;7.40;99.90;;;;;;5038970;28;20546;-67
2022/12/23 04:30:05;;;;;;;397.27;376.38;;;7.40;99.90;;;;;;5052355;28;20496;-67
2022/12/23 04:32:30;;;;;;;375.80;356.13;;;7.30;99.90;;;;;;5036086;28;20377;-67
2022/12/23 04:34:56;;;;;;;384.52;363.73;;;7.40;99.90;;;;;;5035807;28;20631;-68
2022/12/23 04:37:22;;;;;;;410.03;388.43;;;7.30;99.90;;;;;;5034348;28;20752;-68
2022/12/23 04:39:47;;;;;;;399.00;377.60;;;7.40;99.90;;;;;;5034702;28;20393;-68
2022/12/23 04:42:13;;;;;;;404.60;382.67;;;7.40;99.90;;;;;;5034780;28;20489;-68
2022/12/23 04:44:38;;;;;;;432.50;408.87;;;7.40;99.90;;;;;;5050816;28;20388;-68
2022/12/23 04:47:04;;;;;;;434.43;410.77;;;7.30;99.90;;;;;;5034845;28;20478;-67
2022/12/23 04:49:30;;;;;;;420.83;397.95;;;7.30;99.90;;;;;;5035567;28;20401;-67
2022/12/23 04:51:56;;;;;;;419.83;396.35;;;7.30;99.90;;;;;;5035101;28;20404;-67
2022/12/23 04:54:21;;;;;;;412.93;389.97;;;7.20;99.90;;;;;;5052173;28;20385;-67
2022/12/23 04:56:47;;;;;;;423.60;400.07;;;7.20;99.90;;;;;;5033723;28;20428;-68
2022/12/23 04:59:12;;;;;;;397.67;376.02;;;7.30;99.90;;;;;;5034429;28;20484;-68
2022/12/23 05:01:38;;;;;;;406.47;384.00;;;7.40;99.90;;;;;;5033153;28;20385;-68
2022/12/23 05:04:04;;;;;;;403.43;381.00;;;7.40;99.90;;;;;;5050271;28;20413;-68
2022/12/23 05:06:29;;;;;;;405.40;382.90;;;7.40;99.90;;;;;;5050216;28;20440;-67
2022/12/23 05:08:55;;;;;;;405.23;382.88;;;7.40;99.90;;;;;;5032772;28;20466;-68
2022/12/23 05:11:20;;;;;;;407.15;384.83;;;7.30;99.90;;;;;;5032948;28;20389;-68
2022/12/23 05:13:46;;;;;;;402.93;380.73;;;7.40;99.90;;;;;;5030420;28;20385;-68
2022/12/23 05:16:11;;;;;;;416.23;393.17;;;7.40;99.90;;;;;;5028456;28;20749;-68
2022/12/23 05:18:37;;;;;;;401.85;379.60;;;7.40;99.90;;;;;;5028660;28;20390;-68
2022/12/23 05:21:03;;;;;;;390.30;369.00;;;7.40;99.90;;;;;;5028863;28;20397;-68
2022/12/23 05:23:28;;;;;;;403.75;381.45;;;7.40;99.90;;;;;;5028011;28;20488;-67
2022/12/23 05:25:54;;;;;;;416.60;394.03;;;7.40;99.90;;;;;;5026749;28;20507;-68
2022/12/23 05:28:21;;;;;;;421.40;398.40;;;7.40;99.90;;;;;;5025115;28;20441;-68
2022/12/23 05:30:46;;;;;;;409.55;387.45;;;7.40;99.90;;;;;;5028497;28;20812;-68
2022/12/23 05:33:12;;;;;;;408.08;385.67;;;7.40;99.90;;;;;;5032505;28;20468;-68
2022/12/23 05:35:38;;;;;;;393.83;372.08;;;7.40;99.90;;;;;;5032132;28;20397;-68
2022/12/23 05:38:04;;;;;;;411.90;389.65;;;7.40;99.90;;;;;;5031691;28;20453;-68
2022/12/23 05:40:29;;;;;;;409.23;386.40;;;7.40;99.90;;;;;;5031333;28;20439;-68
2022/12/23 05:42:55;;;;;;;420.25;396.77;;;7.40;99.90;;;;;;5030066;28;20401;-68
2022/12/23 05:45:21;;;;;;;409.77;387.17;;;7.30;99.90;;;;;;5030227;28;20377;-67
2022/12/23 05:47:46;;;;;;;393.97;372.30;;;7.40;99.90;;;;;;5028843;28;20769;-68
2022/12/23 05:50:12;;;;;;;402.77;380.20;;;7.40;99.90;;;;;;5027554;28;20494;-68
2022/12/23 05:52:38;;;;;;;403.55;380.70;;;7.40;99.90;;;;;;5027863;28;20623;-67
2022/12/23 05:55:05;;;;;;;403.30;380.33;;;7.30;99.90;;;;;;5029998;28;20523;-67
2022/12/23 05:57:33;;;;;;;403.52;380.58;;;7.30;99.90;;;;;;5029731;28;20506;-67
2022/12/23 05:59:58;;;;;;;411.00;388.30;;;7.30;99.90;;;;;;5029289;28;20389;-67
2022/12/23 06:02:24;;;;;;;412.27;389.30;;;7.30;99.90;;;;;;5029675;28;20397;-67
2022/12/23 06:04:49;;;;;;;407.48;384.60;;;7.30;99.90;;;;;;5029665;28;20439;-67
2022/12/23 06:07:15;;;;;;;404.60;381.50;;;7.30;99.90;;;;;;5047400;28;20523;-68
2022/12/23 06:09:41;;;;;;;406.00;383.27;;;7.30;99.90;;;;;;5030934;28;20412;-67
2022/12/23 06:12:07;;;;;;;398.80;376.53;;;7.30;99.90;;;;;;5030352;28;20454;-67
2022/12/23 06:14:32;;;;;;;411.60;388.40;;;7.30;99.90;;;;;;5047390;28;20385;-67
2022/12/23 06:16:58;;;;;;;418.48;395.15;;;7.30;99.90;;;;;;5029493;28;20382;-67
2022/12/23 06:19:25;;;;;;;421.77;398.20;;;7.30;99.90;;;;;;5030326;28;20381;-67
2022/12/23 06:21:50;;;;;;;406.60;383.90;;;7.30;99.90;;;;;;5047899;28;20401;-67
2022/12/23 06:24:16;;;;;;;413.27;390.17;;;7.40;99.90;;;;;;5029329;28;20647;-67
2022/12/23 06:26:41;;;;;;;412.13;389.17;;;7.40;99.90;;;;;;5048301;28;20892;-67
2022/12/23 06:29:07;;;;;;;386.17;364.77;;;7.40;99.90;;;;;;5031696;28;20408;-67
2022/12/23 06:31:32;;;;;;;403.13;380.87;;;7.40;99.90;;;;;;5031803;28;20381;-67
2022/12/23 06:33:58;;;;;;;402.52;380.35;;;7.40;99.90;;;;;;5030879;28;20378;-67
2022/12/23 06:36:23;;;;;;;398.95;376.73;;;7.40;99.90;;;;;;5048418;28;20685;-67
2022/12/23 06:38:49;;;;;;;391.17;369.60;;;7.40;99.90;;;;;;5033143;28;20416;-67
2022/12/23 06:41:15;;;;;;;386.70;365.43;;;7.30;99.90;;;;;;5052816;28;20685;-67
2022/12/23 06:43:40;;;;;;;393.40;372.05;;;7.30;99.90;;;;;;5035181;28;20397;-67
2022/12/23 06:46:06;;;;;;;384.10;362.85;;;7.20;99.90;;;;;;5051164;28;20423;-67
2022/12/23 06:48:31;;;;;;;393.83;372.30;;;7.20;99.90;;;;;;5033159;28;20552;-67
2022/12/23 06:50:57;;;;;;;401.67;379.80;;;7.20;99.90;;;;;;5049826;28;20400;-67
2022/12/23 06:53:22;;;;;;;392.60;371.08;;;7.20;99.90;;;;;;5031163;28;20491;-68
2022/12/23 06:55:48;;;;;;;392.58;371.38;;;7.20;99.90;;;;;;5030615;28;20538;-67
2022/12/23 06:58:13;;;;;;;393.77;372.47;;;7.20;99.90;;;;;;5029065;28;20839;-67
2022/12/23 07:00:39;;;;;;;387.30;366.23;;;7.30;99.90;;;;;;5029891;28;20460;-67
2022/12/23 07:03:04;;;;;;;388.98;367.92;;;7.20;99.90;;;;;;5027449;28;20487;-68
2022/12/23 07:05:30;;;;;;;382.70;361.90;;;7.20;99.90;;;;;;5026597;28;20389;-68
2022/12/23 07:07:57;;;;;;;391.60;370.40;;;7.30;99.90;;;;;;5028614;28;20433;-69
2022/12/23 07:10:23;;;;;;;378.40;357.73;;;7.20;99.90;;;;;;5029590;28;20743;-68
2022/12/23 07:12:48;;;;;;;373.17;353.17;;;7.30;99.90;;;;;;5028573;28;20805;-68
2022/12/23 07:15:14;;;;;;;388.30;367.55;;;7.30;99.90;;;;;;5045284;28;20830;-68
2022/12/23 07:17:39;;;;;;;379.83;359.67;;;7.30;99.90;;;;;;5028519;28;20811;-68
2022/12/23 07:20:05;;;;;;;386.63;365.77;;;7.30;99.90;;;;;;5027953;28;20385;-68
2022/12/23 07:22:31;;;;;;;400.10;378.85;;;7.30;99.90;;;;;;5026362;28;20927;-68
2022/12/23 07:24:56;;;;;;;378.83;358.53;;;7.20;99.90;;;;;;5028365;28;20393;-69
2022/12/23 07:27:22;;;;;;;395.20;374.10;;;7.30;99.90;;;;;;5026980;28;20662;-69
2022/12/23 07:29:47;;;;;;;399.17;377.38;;;7.30;99.90;;;;;;5043592;28;20522;-69
2022/12/23 07:32:13;;;;;;;404.43;382.40;;;7.30;99.90;;;;;;5026659;28;20654;-69
2022/12/23 07:34:39;;;;;;;420.53;397.80;;;7.20;99.90;;;;;;5025426;28;20466;-68
2022/12/23 07:37:04;;;;;;;407.83;385.20;;;7.30;99.90;;;;;;5027284;28;20504;-68
2022/12/23 07:39:30;;;;;;;404.00;382.00;;;7.30;99.90;;;;;;5026497;28;20878;-66
2022/12/23 07:41:55;;;;;;;402.33;380.07;;;7.20;99.90;;;;;;5026455;28;20824;-69
2022/12/23 07:44:21;;;;;;;418.52;395.20;;;7.20;99.90;;;;;;5025258;28;20923;-68
2022/12/23 07:46:46;;;;;;;410.10;387.13;;;7.20;99.90;;;;;;5040042;28;20439;-69
2022/12/23 07:49:12;;;;;;;417.63;394.43;;;7.20;99.90;;;;;;5023411;28;20421;-69
2022/12/23 07:51:37;;;;;;;406.38;384.40;;;7.20;99.90;;;;;;5023114;28;20407;-68
2022/12/23 07:54:03;;;;;;;409.17;386.52;;;7.20;99.90;;;;;;5024854;28;20782;-69
2022/12/23 07:56:28;;;;;;;414.27;390.90;;;7.30;99.90;;;;;;5022947;28;20460;-68
2022/12/23 07:58:54;;;;;;;415.67;392.03;;;7.30;99.90;;;;;;5024313;28;20579;-68
2022/12/23 08:01:20;;;;;;;416.00;392.25;;;7.20;99.90;;;;;;5024271;28;20405;-68
2022/12/23 08:03:46;;;;;;;408.25;384.90;;;7.20;99.90;;;;;;5023651;28;20715;-68
2022/12/23 08:06:12;;;;;;;410.35;387.45;;;7.20;99.90;;;;;;5021252;28;20450;-69
2022/12/23 08:08:39;;;;;;;395.17;373.05;;;7.30;99.90;;;;;;5022185;28;20689;-69
2022/12/23 08:11:07;;;;;;;382.65;361.50;;;7.20;99.90;;;;;;5038611;28;20373;-69
2022/12/23 08:13:34;;;;;;;374.17;352.92;;;7.20;99.90;;;;;;5041262;28;20381;-69
2022/12/23 08:16:01;;;;;;;391.67;369.60;;;7.20;99.90;;;;;;5021608;28;20447;-67
2022/12/23 08:18:30;;;;;;;397.23;374.93;;;7.20;99.90;;;;;;5020352;28;20652;-67
2022/12/23 08:21:01;;;;;;;400.50;378.23;;;7.20;99.90;;;;;;5019423;28;20548;-69
2022/12/23 08:23:28;;;;;;;385.23;364.15;;;7.20;99.90;;;;;;5039540;28;20381;-69
2022/12/23 08:26:03;;;;;;;381.80;360.58;;;7.20;99.90;;;;;;5021761;28;20654;-67
2022/12/23 08:28:30;;;;;;;388.83;367.27;;;7.20;99.90;;;;;;5039168;28;20385;-69
2022/12/23 08:31:09;;;;;;;399.58;377.45;;;7.20;99.90;;;;;;5019066;28;20793;-69
2022/12/23 08:33:37;;;;;;;380.52;359.10;;;7.20;99.90;;;;;;5033772;28;20954;-69
2022/12/23 08:36:04;;;;;;;365.75;345.30;;;7.20;99.90;;;;;;5016699;28;20937;-69
2022/12/23 08:38:30;;;;;;;389.35;367.65;;;7.20;99.90;;;;;;5016540;28;20780;-69
2022/12/23 08:40:56;;;;;;;378.10;357.27;;;7.20;99.90;;;;;;5014735;28;20901;-69
2022/12/23 08:43:21;;;;;;;378.27;357.13;;;7.10;99.90;;;;;;5029874;28;20457;-69
2022/12/23 08:45:47;;;;;;;365.13;345.00;;;7.10;99.90;;;;;;5013358;28;20606;-68
2022/12/23 08:48:13;;;;;;;369.73;349.20;;;7.10;99.90;;;;;;5012706;28;20397;-68
2022/12/23 08:50:40;;;;;;;372.75;352.13;;;7.10;99.90;;;;;;5012982;28;20633;-68
2022/12/23 08:53:06;;;;;;;386.50;365.02;;;7.10;99.90;;;;;;5016605;28;20774;-68
2022/12/23 08:55:40;;;;;;;389.67;368.10;;;7.10;99.90;;;;;;5033738;28;20727;-68
2022/12/23 08:58:07;;;;;;;379.23;357.42;;;7.20;99.90;;;;;;5015535;28;20382;-68
2022/12/23 09:00:33;;;;;;;403.88;381.52;;;7.20;99.90;;;;;;5031696;28;20732;-68
2022/12/23 09:02:59;;;;;;;389.00;367.27;;;7.20;99.90;;;;;;5014597;28;20455;-68
2022/12/23 09:05:25;;;;;;;381.73;359.95;;;7.10;99.90;;;;;;5019937;28;20417;-68
2022/12/23 09:07:50;;;;;;;364.73;343.80;;;7.20;99.90;;;;;;5034558;28;20610;-68
2022/12/23 09:10:16;;;;;;;388.53;366.57;;;7.10;99.90;;;;;;5015879;28;20712;-66
2022/12/23 09:12:41;;;;;;;393.63;371.40;;;7.20;99.90;;;;;;5016175;28;20647;-68
2022/12/23 09:15:07;;;;;;;382.67;361.20;;;7.10;99.90;;;;;;5016249;28;20389;-68
2022/12/23 09:17:33;;;;;;;382.00;360.38;;;7.00;99.90;;;;;;5015588;28;20389;-66
2022/12/23 09:19:58;;;;;;;373.38;352.35;;;7.00;99.90;;;;;;5013917;28;20589;-66
2022/12/23 09:22:24;;;;;;;358.43;337.63;;;6.90;99.90;;;;;;5015412;28;20547;-66
2022/12/23 09:24:49;;;;;;;361.50;340.50;;;6.80;99.90;;;;;;5016057;28;20608;-67
2022/12/23 09:27:15;;;;;;;383.90;361.88;;;6.70;99.90;;;;;;5014906;28;20408;-66
2022/12/23 09:29:41;;;;;;;403.20;380.33;;;6.70;99.90;;;;;;5013634;28;20405;-67
2022/12/23 09:32:06;;;;;;;417.33;393.40;;;6.70;99.90;;;;;;5011858;28;20704;-67
2022/12/23 09:34:32;;;;;;;433.77;408.88;;;6.80;99.90;;;;;;5029805;28;20500;-67
2022/12/23 09:36:57;;;;;;;430.03;405.40;;;6.80;99.90;;;;;;5012819;28;20462;-67
2022/12/23 09:39:23;;;;;;;439.80;414.37;;;6.90;99.90;;;;;;5029764;28;20393;-67
2022/12/23 09:42:06;;;;;;;431.40;406.75;;;6.90;99.90;;;;;;5010156;28;20424;-68
2022/12/23 09:44:48;;;;;;;423.67;399.77;;;6.90;99.90;;;;;;5009967;28;20385;-68
2022/12/23 09:47:19;;;;;;;409.73;386.45;;;6.90;99.90;;;;;;5011446;28;20444;-68
2022/12/23 09:49:53;;;;;;;438.42;413.58;;;6.90;99.90;;;;;;5012866;28;20612;-68
2022/12/23 09:52:24;;;;;;;419.27;395.23;;;6.90;99.90;;;;;;5012762;28;20949;-68
2022/12/23 09:54:53;;;;;;;431.30;407.05;;;6.90;99.90;;;;;;5012155;28;20459;-68
2022/12/23 09:57:46;;;;;;;443.23;418.50;;;7.00;99.90;;;;;;5013702;28;20675;-68
2022/12/23 10:00:17;;;;;;;444.00;418.87;;;6.90;99.90;;;;;;5015225;28;20382;-68
2022/12/23 10:03:02;;;;;;;438.17;413.13;;;7.00;99.90;;;;;;5015502;28;20391;-68
2022/12/23 10:06:08;;;;;;;443.63;418.58;;;7.00;99.90;;;;;;5011901;28;20868;-68
2022/12/23 10:08:38;;;;;;;486.73;459.17;;;7.10;99.90;;;;;;5014123;28;20565;-67
2022/12/23 10:11:17;;;;;;;502.27;472.77;;;7.10;99.90;;;;;;5009443;28;20761;-67
2022/12/23 10:13:49;;;;;;;517.63;487.65;;;7.10;99.90;;;;;;5011714;28;20479;-67
2022/12/23 10:16:22;;;;;;;503.95;474.92;;;7.10;99.90;;;;;;5015140;28;20409;-67
2022/12/23 10:19:05;;;;;;;514.13;484.50;;;7.00;99.90;;;;;;5023459;28;20389;-68
2022/12/23 10:21:35;;;;;;;478.73;451.27;;;7.00;99.90;;;;;;5024826;28;20676;-68
2022/12/23 10:24:11;;;;;;;512.80;483.90;;;7.10;99.90;;;;;;5023526;28;20397;-67
2022/12/23 10:26:57;;;;;;;488.75;460.98;;;7.00;99.90;;;;;;5042251;28;20389;-67
2022/12/23 10:29:28;;;;;;;493.98;466.08;;;7.10;99.90;;;;;;5041881;28;20472;-68
2022/12/23 10:32:32;;;;;;;507.88;478.55;;;7.10;99.90;;;;;;5025415;28;20382;-68
2022/12/23 10:35:21;;;;;;;532.83;502.07;;;7.10;99.90;;;;;;5023248;28;20459;-68
2022/12/23 10:37:52;;;;;;;515.03;484.90;;;7.20;99.90;;;;;;5024073;28;21027;-68
2022/12/23 10:40:42;;;;;;;496.38;467.77;;;7.20;99.90;;;;;;5023691;28;20404;-69
2022/12/23 10:43:34;;;;;;;513.72;484.52;;;7.10;99.90;;;;;;5023972;28;20389;-69
2022/12/23 10:46:26;;;;;;;505.00;476.35;;;7.10;99.90;;;;;;5021875;28;20397;-69
2022/12/23 10:48:55;;;;;;;520.50;490.02;;;7.20;99.90;;;;;;5024363;28;20401;-70
2022/12/23 10:51:44;;;;;;;507.42;478.17;;;7.10;99.90;;;;;;5027178;28;20408;-69
2022/12/23 10:54:14;;;;;;;510.80;481.08;;;7.10;99.90;;;;;;5030442;28;20476;-70
2022/12/23 10:56:41;;;;;;;489.73;461.52;;;7.00;99.90;;;;;;5031130;28;20879;-69
2022/12/23 10:59:10;;;;;;;482.30;455.07;;;6.90;99.90;;;;;;5030912;28;20923;-70
2022/12/23 11:01:36;;;;;;;481.55;454.00;;;7.00;99.90;;;;;;5047498;28;20381;-59
2022/12/23 11:04:07;;;;;;;482.23;454.53;;;7.10;99.90;;;;;;5033652;28;20396;-59
2022/12/23 11:06:38;;;;;;;507.33;478.50;;;7.10;99.90;;;;;;5031746;28;20520;-68
2022/12/23 11:09:05;;;;;;;489.35;461.73;;;7.10;99.90;;;;;;5027855;28;20405;-69
2022/12/23 11:11:53;;;;;;;495.15;466.42;;;7.10;99.90;;;;;;5027471;28;20386;-70
2022/12/23 11:14:33;;;;;;;500.75;472.38;;;7.10;99.90;;;;;;5027765;28;20423;-68
2022/12/23 11:16:59;;;;;;;507.25;478.15;;;7.10;99.90;;;;;;5028184;28;20446;-70
2022/12/23 11:19:25;;;;;;;502.90;474.67;;;7.10;99.90;;;;;;5028252;28;20385;-69
2022/12/23 11:21:55;;;;;;;493.60;464.90;;;7.20;99.90;;;;;;5044008;28;20404;-69
2022/12/23 11:24:22;;;;;;;504.15;475.63;;;7.10;99.90;;;;;;5025987;28;20424;-69
2022/12/23 11:27:01;;;;;;;510.45;480.73;;;7.10;99.90;;;;;;5024592;28;20389;-70
2022/12/23 11:29:34;;;;;;;507.55;478.42;;;7.10;99.90;;;;;;5026431;28;20401;-69
2022/12/23 11:32:01;;;;;;;504.98;475.95;;;7.00;99.90;;;;;;5025223;28;20377;-69
2022/12/23 11:34:35;;;;;;;513.80;484.70;;;7.00;99.90;;;;;;5024796;28;20417;-70
2022/12/23 11:37:01;;;;;;;523.75;493.95;;;7.10;99.90;;;;;;5022804;28;20394;-69
2022/12/23 11:39:28;;;;;;;502.75;474.60;;;7.20;99.90;;;;;;5022687;28;20397;-69
2022/12/23 11:42:04;;;;;;;518.33;489.27;;;7.20;99.90;;;;;;5022305;28;20407;-69
2022/12/23 11:44:48;;;;;;;507.60;478.52;;;7.30;99.90;;;;;;5038281;28;20455;-70
2022/12/23 11:47:21;;;;;;;526.43;496.43;;;7.30;99.90;;;;;;5021135;28;20393;-70
2022/12/23 11:50:19;;;;;;;500.67;472.15;;;7.40;99.90;;;;;;5024615;28;20409;-69
2022/12/23 11:52:50;;;;;;;514.35;485.65;;;7.40;99.90;;;;;;5022066;28;20390;-69
2022/12/23 11:55:24;;;;;;;500.88;472.48;;;7.40;99.90;;;;;;5020325;28;20657;-68
2022/12/23 11:57:51;;;;;;;497.55;469.02;;;7.40;99.90;;;;;;5021567;28;20653;-68
2022/12/23 12:00:23;;;;;;;496.40;468.15;;;7.30;99.90;;;;;;5023286;28;20732;-68
2022/12/23 12:02:52;;;;;;;483.70;456.58;;;7.30;99.90;;;;;;5021488;28;20484;-69
2022/12/23 12:05:29;;;;;;;507.42;478.80;;;7.30;99.90;;;;;;5020545;28;20480;-69
2022/12/23 12:08:00;;;;;;;500.98;472.98;;;7.30;99.90;;;;;;5037658;28;20566;-68
2022/12/23 12:10:30;;;;;;;490.85;462.75;;;7.40;99.90;;;;;;5021763;28;20959;-68
2022/12/23 12:13:00;;;;;;;503.92;475.70;;;7.30;99.90;;;;;;5018257;28;20828;-68
2022/12/23 12:15:40;;;;;;;500.27;471.63;;;7.30;99.90;;;;;;5018073;28;20393;-66
2022/12/23 12:18:09;;;;;;;499.77;471.48;;;7.30;99.90;;;;;;5017728;28;20382;-69
2022/12/23 12:20:38;;;;;;;511.75;483.05;;;7.30;99.90;;;;;;5016784;28;20398;-68
2022/12/23 12:23:27;;;;;;;505.50;476.80;;;7.30;99.90;;;;;;5015897;28;20705;-68
2022/12/23 12:26:06;;;;;;;497.33;468.70;;;7.30;99.90;;;;;;5016369;28;20397;-68
2022/12/23 12:28:37;;;;;;;513.08;484.55;;;7.20;99.90;;;;;;5018155;28;20385;-68
2022/12/23 12:31:21;;;;;;;499.67;471.77;;;7.30;99.90;;;;;;5019538;28;20427;-68
2022/12/23 12:33:59;;;;;;;499.13;471.50;;;7.30;99.90;;;;;;5034186;28;20423;-68
2022/12/23 12:36:52;;;;;;;499.23;471.25;;;7.30;99.90;;;;;;5028940;28;20487;-68
2022/12/23 12:39:32;;;;;;;498.30;470.65;;;7.40;99.90;;;;;;5014652;28;20401;-70
2022/12/23 12:42:15;;;;;;;490.23;463.65;;;7.50;99.90;;;;;;5017719;28;20382;-69
2022/12/23 12:45:04;;;;;;;494.55;467.73;;;7.60;99.90;;;;;;5020137;28;20804;-68
2022/12/23 12:48:05;;;;;;;501.88;474.02;;;7.60;99.90;;;;;;5021369;28;20377;-68
2022/12/23 12:50:40;;;;;;;521.70;492.67;;;7.70;99.90;;;;;;4993016;28;20409;-68
2022/12/23 12:53:17;;;;;;;521.90;493.23;;;7.80;99.90;;;;;;5019858;28;20409;-68
2022/12/23 12:55:49;;;;;;;537.60;507.63;;;7.80;99.90;;;;;;5018730;28;20548;-68
2022/12/23 12:58:19;;;;;;;534.17;504.17;;;7.80;99.90;;;;;;5033622;28;20511;-69